Time,TemperatureF,DewpointF,PressureIn,WindDirection,WindDirectionDegrees,WindSpeedMPH,WindSpeedGustMPH,Humidity,HourlyPrecipIn,Conditions,Clouds,dailyrainin,SoftwareType,DateUTC
2013-09-27 00:00:00,48.4,47.3,30.13,WSW,243,0.0,0.0,96,0.00,,,0.00,Wunderground v.1.15,2013-09-27 04:00:00,
2013-09-27 00:01:00,48.4,47.3,30.13,WSW,243,0.0,0.0,96,0.00,,,0.00,Wunderground v.1.15,2013-09-27 04:01:00,
2013-09-27 00:03:00,48.3,47.2,30.13,WSW,243,0.0,0.0,96,0.00,,,0.00,Wunderground v.1.15,2013-09-27 04:03:00,
2013-09-27 00:04:00,48.3,47.2,30.13,WSW,243,0.0,0.0,96,0.00,,,0.00,Wunderground v.1.15,2013-09-27 04:04:00,
2013-09-27 00:06:00,48.2,47.1,30.13,WSW,243,0.0,0.0,96,0.00,,,0.00,Wunderground v.1.15,2013-09-27 04:06:00,
2013-09-27 00:08:00,48.1,47.0,30.13,WSW,243,0.0,0.0,96,0.00,,,0.00,Wunderground v.1.15,2013-09-27 04:08:00,
2013-09-27 00:13:00,48.0,46.9,30.14,WSW,243,0.0,0.0,96,0.00,,,0.00,Wunderground v.1.15,2013-09-27 04:13:00,
2013-09-27 00:18:00,47.9,46.8,30.13,WSW,243,0.0,0.0,96,0.00,,,0.00,Wunderground v.1.15,2013-09-27 04:18:00,
2013-09-27 00:23:00,47.8,46.7,30.14,WSW,243,0.0,0.0,96,0.00,,,0.00,Wunderground v.1.15,2013-09-27 04:23:00,
2013-09-27 00:28:00,47.7,46.6,30.13,WSW,243,0.0,0.0,96,0.00,,,0.00,Wunderground v.1.15,2013-09-27 04:28:00,
2013-09-27 00:34:00,47.6,46.5,30.13,WSW,243,0.0,0.0,96,0.00,,,0.00,Wunderground v.1.15,2013-09-27 04:34:00,
2013-09-27 00:39:00,47.5,46.4,30.13,WSW,243,0.0,0.0,96,0.00,,,0.00,Wunderground v.1.15,2013-09-27 04:39:00,
2013-09-27 00:44:00,47.4,46.3,30.14,WSW,243,0.0,0.0,96,0.00,,,0.00,Wunderground v.1.15,2013-09-27 04:44:00,
2013-09-27 00:49:00,47.3,46.2,30.14,WSW,243,0.0,0.0,96,0.00,,,0.00,Wunderground v.1.15,2013-09-27 04:49:00,
2013-09-27 00:54:00,47.1,46.0,30.14,WSW,243,0.0,0.0,96,0.00,,,0.00,Wunderground v.1.15,2013-09-27 04:54:00,
2013-09-27 01:00:00,46.9,45.8,30.14,WSW,243,0.0,0.0,96,0.00,,,0.00,Wunderground v.1.15,2013-09-27 05:00:00,
2013-09-27 01:05:00,46.7,45.6,30.14,WSW,243,0.0,0.0,96,0.00,,,0.00,Wunderground v.1.15,2013-09-27 05:05:00,
2013-09-27 01:10:00,46.5,45.4,30.14,WSW,243,0.0,0.0,96,0.00,,,0.00,Wunderground v.1.15,2013-09-27 05:10:00,
2013-09-27 01:15:00,46.4,45.3,30.14,WSW,243,0.0,0.0,96,0.00,,,0.00,Wunderground v.1.15,2013-09-27 05:15:00,
2013-09-27 01:20:00,46.4,45.3,30.14,WSW,243,0.0,0.0,96,0.00,,,0.00,Wunderground v.1.15,2013-09-27 05:20:00,
2013-09-27 01:26:00,46.3,45.5,30.14,WSW,243,0.0,0.0,97,0.00,,,0.00,Wunderground v.1.15,2013-09-27 05:26:00,
2013-09-27 01:31:00,46.1,45.0,30.14,WSW,243,0.0,0.0,96,0.00,,,0.00,Wunderground v.1.15,2013-09-27 05:31:00,
2013-09-27 01:36:00,46.1,45.3,30.14,WSW,243,0.0,0.0,97,0.00,,,0.00,Wunderground v.1.15,2013-09-27 05:36:00,
2013-09-27 01:41:00,46.0,45.2,30.14,WSW,243,0.0,0.0,97,0.00,,,0.00,Wunderground v.1.15,2013-09-27 05:41:00,
2013-09-27 01:46:00,45.9,45.1,30.14,WSW,243,0.0,0.0,97,0.00,,,0.00,Wunderground v.1.15,2013-09-27 05:46:00,
2013-09-27 01:52:00,45.8,45.0,30.14,WSW,243,0.0,0.0,97,0.00,,,0.00,Wunderground v.1.15,2013-09-27 05:52:00,
2013-09-27 01:58:00,45.9,45.1,30.14,WSW,243,0.0,0.0,97,0.00,,,0.00,Wunderground v.1.15,2013-09-27 05:58:00,
2013-09-27 02:03:00,45.8,45.0,30.14,WSW,243,0.0,0.0,97,0.00,,,0.00,Wunderground v.1.15,2013-09-27 06:03:00,
2013-09-27 02:09:00,45.7,44.9,30.14,WSW,243,0.0,0.0,97,0.00,,,0.00,Wunderground v.1.15,2013-09-27 06:09:00,
2013-09-27 02:14:00,45.6,44.8,30.14,WSW,243,0.0,0.0,97,0.00,,,0.00,Wunderground v.1.15,2013-09-27 06:14:00,
2013-09-27 02:19:00,45.5,44.7,30.15,WSW,243,0.0,0.0,97,0.00,,,0.00,Wunderground v.1.15,2013-09-27 06:19:00,
2013-09-27 02:25:00,45.4,44.6,30.15,WSW,243,0.0,0.0,97,0.00,,,0.00,Wunderground v.1.15,2013-09-27 06:25:00,
2013-09-27 02:30:00,45.3,44.5,30.15,WSW,243,0.0,0.0,97,0.00,,,0.00,Wunderground v.1.15,2013-09-27 06:30:00,
2013-09-27 02:35:00,45.2,44.4,30.15,WSW,243,0.0,0.0,97,0.00,,,0.00,Wunderground v.1.15,2013-09-27 06:35:00,
2013-09-27 02:40:00,45.1,44.3,30.15,WSW,243,0.0,0.0,97,0.00,,,0.00,Wunderground v.1.15,2013-09-27 06:40:00,
2013-09-27 02:45:00,45.0,44.2,30.15,WSW,243,0.0,0.0,97,0.00,,,0.00,Wunderground v.1.15,2013-09-27 06:45:00,
2013-09-27 02:50:00,45.0,44.2,30.15,WSW,243,0.0,0.0,97,0.00,,,0.00,Wunderground v.1.15,2013-09-27 06:50:00,
2013-09-27 02:55:00,44.9,44.1,30.15,WSW,243,0.0,0.0,97,0.00,,,0.00,Wunderground v.1.15,2013-09-27 06:55:00,
2013-09-27 03:01:00,44.9,44.1,30.15,WSW,243,0.0,0.0,97,0.00,,,0.00,Wunderground v.1.15,2013-09-27 07:01:00,
2013-09-27 03:06:00,44.8,44.0,30.15,WSW,243,0.0,0.0,97,0.00,,,0.00,Wunderground v.1.15,2013-09-27 07:06:00,
2013-09-27 03:11:00,44.7,43.9,30.15,WSW,243,0.0,0.0,97,0.00,,,0.00,Wunderground v.1.15,2013-09-27 07:11:00,
2013-09-27 03:17:00,44.6,43.8,30.15,WSW,243,0.0,0.0,97,0.00,,,0.00,Wunderground v.1.15,2013-09-27 07:17:00,
2013-09-27 03:22:00,44.5,43.7,30.15,WSW,243,0.0,0.0,97,0.00,,,0.00,Wunderground v.1.15,2013-09-27 07:22:00,
2013-09-27 03:27:00,44.5,43.7,30.15,WSW,243,0.0,0.0,97,0.00,,,0.00,Wunderground v.1.15,2013-09-27 07:27:00,
2013-09-27 03:32:00,44.4,43.6,30.15,WSW,243,0.0,0.0,97,0.00,,,0.00,Wunderground v.1.15,2013-09-27 07:32:00,
2013-09-27 03:37:00,44.4,43.6,30.15,WSW,243,0.0,0.0,97,0.00,,,0.00,Wunderground v.1.15,2013-09-27 07:37:00,
2013-09-27 03:43:00,44.3,43.5,30.15,WSW,243,0.0,0.0,97,0.00,,,0.00,Wunderground v.1.15,2013-09-27 07:43:00,
2013-09-27 03:48:00,44.2,43.4,30.15,WSW,243,0.0,0.0,97,0.00,,,0.00,Wunderground v.1.15,2013-09-27 07:48:00,
2013-09-27 03:50:00,44.2,43.4,30.15,WSW,243,0.0,0.0,97,0.00,,,0.00,Wunderground v.1.15,2013-09-27 07:50:00,
2013-09-27 03:56:00,44.1,43.3,30.15,WSW,243,0.0,0.0,97,0.00,,,0.00,Wunderground v.1.15,2013-09-27 07:56:00,
2013-09-27 04:01:00,44.0,43.2,30.15,WSW,243,0.0,0.0,97,0.00,,,0.00,Wunderground v.1.15,2013-09-27 08:01:00,
2013-09-27 04:06:00,43.9,43.1,30.15,WSW,243,0.0,0.0,97,0.00,,,0.00,Wunderground v.1.15,2013-09-27 08:06:00,
2013-09-27 04:11:00,43.8,43.0,30.15,WSW,243,0.0,0.0,97,0.00,,,0.00,Wunderground v.1.15,2013-09-27 08:11:00,
2013-09-27 04:16:00,43.7,42.9,30.15,WSW,243,0.0,0.0,97,0.00,,,0.00,Wunderground v.1.15,2013-09-27 08:16:00,
2013-09-27 04:21:00,43.6,42.8,30.16,WSW,243,0.0,0.0,97,0.00,,,0.00,Wunderground v.1.15,2013-09-27 08:21:00,
2013-09-27 04:26:00,43.6,42.8,30.16,WSW,243,0.0,0.0,97,0.00,,,0.00,Wunderground v.1.15,2013-09-27 08:26:00,
2013-09-27 04:31:00,43.6,42.8,30.16,WSW,243,0.0,0.0,97,0.00,,,0.00,Wunderground v.1.15,2013-09-27 08:31:00,
2013-09-27 04:36:00,43.5,42.7,30.16,WSW,243,0.0,0.0,97,0.00,,,0.00,Wunderground v.1.15,2013-09-27 08:36:00,
2013-09-27 04:42:00,43.4,42.6,30.16,WSW,243,0.0,0.0,97,0.00,,,0.00,Wunderground v.1.15,2013-09-27 08:42:00,
2013-09-27 04:47:00,43.3,42.5,30.17,WSW,243,0.0,0.0,97,0.00,,,0.00,Wunderground v.1.15,2013-09-27 08:47:00,
2013-09-27 04:52:00,43.4,42.6,30.17,WSW,243,0.0,0.0,97,0.00,,,0.00,Wunderground v.1.15,2013-09-27 08:52:00,
2013-09-27 04:57:00,43.3,42.5,30.17,WSW,243,0.0,0.0,97,0.00,,,0.00,Wunderground v.1.15,2013-09-27 08:57:00,
2013-09-27 05:02:00,43.3,42.5,30.17,WSW,243,0.0,0.0,97,0.00,,,0.00,Wunderground v.1.15,2013-09-27 09:02:00,
2013-09-27 05:07:00,43.3,42.5,30.17,WSW,243,0.0,0.0,97,0.00,,,0.00,Wunderground v.1.15,2013-09-27 09:07:00,
2013-09-27 05:12:00,43.3,42.5,30.17,WSW,243,0.0,0.0,97,0.00,,,0.00,Wunderground v.1.15,2013-09-27 09:12:00,
2013-09-27 05:17:00,43.3,42.5,30.17,WSW,243,0.0,0.0,97,0.00,,,0.00,Wunderground v.1.15,2013-09-27 09:17:00,
2013-09-27 05:22:00,43.3,42.5,30.17,WSW,243,0.0,0.0,97,0.00,,,0.00,Wunderground v.1.15,2013-09-27 09:22:00,
2013-09-27 05:27:00,43.4,42.6,30.17,WSW,243,0.0,0.0,97,0.00,,,0.00,Wunderground v.1.15,2013-09-27 09:27:00,
2013-09-27 05:32:00,43.4,42.6,30.17,WSW,243,0.0,0.0,97,0.00,,,0.00,Wunderground v.1.15,2013-09-27 09:32:00,
2013-09-27 05:38:00,43.3,42.5,30.18,WSW,243,0.0,0.0,97,0.00,,,0.00,Wunderground v.1.15,2013-09-27 09:38:00,
2013-09-27 05:43:00,43.1,42.3,30.18,WSW,243,0.0,0.0,97,0.00,,,0.00,Wunderground v.1.15,2013-09-27 09:43:00,
2013-09-27 05:48:00,43.0,42.2,30.18,WSW,243,0.0,0.0,97,0.00,,,0.00,Wunderground v.1.15,2013-09-27 09:48:00,
2013-09-27 05:53:00,42.9,42.1,30.18,WSW,243,0.0,0.0,97,0.00,,,0.00,Wunderground v.1.15,2013-09-27 09:53:00,
2013-09-27 05:58:00,42.7,41.9,30.18,WSW,243,0.0,0.0,97,0.00,,,0.00,Wunderground v.1.15,2013-09-27 09:58:00,
2013-09-27 06:03:00,42.5,41.7,30.18,WSW,243,0.0,0.0,97,0.00,,,0.00,Wunderground v.1.15,2013-09-27 10:03:00,
2013-09-27 06:09:00,42.4,41.6,30.18,WSW,243,0.0,0.0,97,0.00,,,0.00,Wunderground v.1.15,2013-09-27 10:09:00,
2013-09-27 06:14:00,42.3,41.5,30.18,WSW,243,0.0,0.0,97,0.00,,,0.00,Wunderground v.1.15,2013-09-27 10:14:00,
2013-09-27 06:19:00,42.4,41.6,30.19,WSW,243,0.0,0.0,97,0.00,,,0.00,Wunderground v.1.15,2013-09-27 10:19:00,
2013-09-27 06:24:00,42.4,41.9,30.18,WSW,243,0.0,0.0,98,0.00,,,0.00,Wunderground v.1.15,2013-09-27 10:24:00,
2013-09-27 06:29:00,42.5,42.0,30.19,WSW,243,0.0,0.0,98,0.00,,,0.00,Wunderground v.1.15,2013-09-27 10:29:00,
2013-09-27 06:35:00,42.5,42.0,30.19,WSW,243,0.0,0.0,98,0.00,,,0.00,Wunderground v.1.15,2013-09-27 10:35:00,
2013-09-27 06:40:00,42.5,42.0,30.19,WSW,243,0.0,0.0,98,0.00,,,0.00,Wunderground v.1.15,2013-09-27 10:40:00,
2013-09-27 06:45:00,42.5,42.0,30.19,WSW,243,0.0,0.0,98,0.00,,,0.00,Wunderground v.1.15,2013-09-27 10:45:00,
2013-09-27 06:51:00,42.5,42.0,30.19,WSW,243,0.0,0.0,98,0.00,,,0.00,Wunderground v.1.15,2013-09-27 10:51:00,
2013-09-27 06:56:00,42.5,42.0,30.20,WSW,243,0.0,0.0,98,0.00,,,0.00,Wunderground v.1.15,2013-09-27 10:56:00,
2013-09-27 07:01:00,42.6,42.1,30.20,WSW,243,0.0,0.0,98,0.00,,,0.00,Wunderground v.1.15,2013-09-27 11:01:00,
2013-09-27 07:06:00,42.7,42.2,30.20,South,187,0.0,0.0,98,0.00,,,0.00,Wunderground v.1.15,2013-09-27 11:06:00,
2013-09-27 07:12:00,42.7,42.2,30.20,South,187,0.0,0.0,98,0.00,,,0.00,Wunderground v.1.15,2013-09-27 11:12:00,
2013-09-27 07:17:00,42.7,42.2,30.20,South,188,0.0,0.0,98,0.00,,,0.00,Wunderground v.1.15,2013-09-27 11:17:00,
2013-09-27 07:23:00,42.7,42.2,30.20,South,188,0.0,0.0,98,0.00,,,0.00,Wunderground v.1.15,2013-09-27 11:23:00,
2013-09-27 07:28:00,42.6,42.1,30.21,South,187,0.0,0.0,98,0.00,,,0.00,Wunderground v.1.15,2013-09-27 11:28:00,
2013-09-27 07:33:00,42.5,41.7,30.21,South,187,0.0,0.0,97,0.00,,,0.00,Wunderground v.1.15,2013-09-27 11:33:00,
2013-09-27 07:38:00,42.6,42.1,30.21,South,187,0.0,0.0,98,0.00,,,0.00,Wunderground v.1.15,2013-09-27 11:38:00,
2013-09-27 07:43:00,42.8,42.3,30.21,South,188,0.0,0.0,98,0.00,,,0.00,Wunderground v.1.15,2013-09-27 11:43:00,
2013-09-27 07:48:00,42.9,42.4,30.21,South,187,0.0,0.0,98,0.00,,,0.00,Wunderground v.1.15,2013-09-27 11:48:00,
2013-09-27 07:53:00,43.1,42.6,30.21,South,188,0.0,0.0,98,0.00,,,0.00,Wunderground v.1.15,2013-09-27 11:53:00,
2013-09-27 07:58:00,43.4,42.9,30.21,South,187,0.0,0.0,98,0.00,,,0.00,Wunderground v.1.15,2013-09-27 11:58:00,
2013-09-27 08:04:00,43.6,43.1,30.21,South,190,0.0,0.0,98,0.00,,,0.00,Wunderground v.1.15,2013-09-27 12:04:00,
2013-09-27 08:10:00,43.6,43.1,30.21,SSW,194,0.0,0.0,98,0.00,,,0.00,Wunderground v.1.15,2013-09-27 12:10:00,
2013-09-27 08:15:00,43.5,43.0,30.21,SSW,197,0.0,0.0,98,0.00,,,0.00,Wunderground v.1.15,2013-09-27 12:15:00,
2013-09-27 08:24:00,43.9,43.4,30.22,SSW,198,0.0,0.0,98,0.00,,,0.00,Wunderground v.1.15,2013-09-27 12:24:00,
2013-09-27 08:30:00,44.4,43.9,30.22,SSW,201,0.0,0.0,98,0.00,,,0.00,Wunderground v.1.15,2013-09-27 12:30:00,
2013-09-27 08:35:00,45.0,44.5,30.22,SSW,203,0.0,0.0,98,0.00,,,0.00,Wunderground v.1.15,2013-09-27 12:35:00,
2013-09-27 08:40:00,45.5,45.0,30.22,SSW,203,0.0,0.0,98,0.00,,,0.00,Wunderground v.1.15,2013-09-27 12:40:00,
2013-09-27 08:46:00,45.9,45.6,30.22,SSW,203,0.0,0.0,99,0.00,,,0.00,Wunderground v.1.15,2013-09-27 12:46:00,
2013-09-27 08:51:00,47.1,46.8,30.22,SSW,203,0.0,0.0,99,0.00,,,0.00,Wunderground v.1.15,2013-09-27 12:51:00,
2013-09-27 08:56:00,48.0,47.7,30.23,SSW,203,0.0,0.0,99,0.00,,,0.00,Wunderground v.1.15,2013-09-27 12:56:00,
2013-09-27 09:02:00,49.4,49.1,30.23,SSW,203,0.0,0.0,99,0.00,,,0.00,Wunderground v.1.15,2013-09-27 13:02:00,
2013-09-27 09:07:00,49.8,49.3,30.23,SSW,203,0.0,0.0,98,0.00,,,0.00,Wunderground v.1.15,2013-09-27 13:07:00,
2013-09-27 09:12:00,50.3,49.5,30.23,SSW,204,0.0,0.0,97,0.00,,,0.00,Wunderground v.1.15,2013-09-27 13:12:00,
2013-09-27 09:17:00,51.2,50.4,30.23,SSW,205,0.0,0.0,97,0.00,,,0.00,Wunderground v.1.15,2013-09-27 13:17:00,
2013-09-27 09:22:00,52.2,51.4,30.23,SSW,204,0.0,0.0,97,0.00,,,0.00,Wunderground v.1.15,2013-09-27 13:22:00,
2013-09-27 09:28:00,52.4,51.0,30.23,SSW,204,0.0,0.0,95,0.00,,,0.00,Wunderground v.1.15,2013-09-27 13:28:00,
2013-09-27 09:33:00,52.7,51.3,30.23,SSW,204,0.0,0.0,95,0.00,,,0.00,Wunderground v.1.15,2013-09-27 13:33:00,
2013-09-27 09:39:00,52.9,51.2,30.23,SSW,204,0.0,1.0,94,0.00,,,0.00,Wunderground v.1.15,2013-09-27 13:39:00,
2013-09-27 09:44:00,53.3,51.6,30.23,SSW,205,0.0,0.0,94,0.00,,,0.00,Wunderground v.1.15,2013-09-27 13:44:00,
2013-09-27 09:49:00,53.7,51.7,30.23,SSW,205,0.0,0.0,93,0.00,,,0.00,Wunderground v.1.15,2013-09-27 13:49:00,
2013-09-27 09:54:00,54.1,52.1,30.23,SSW,206,0.0,0.0,93,0.00,,,0.00,Wunderground v.1.15,2013-09-27 13:54:00,
2013-09-27 09:59:00,54.9,52.9,30.23,SSW,205,0.0,1.0,93,0.00,,,0.00,Wunderground v.1.15,2013-09-27 13:59:00,
2013-09-27 10:05:00,55.8,53.2,30.23,SSW,205,0.0,0.0,91,0.00,,,0.00,Wunderground v.1.15,2013-09-27 14:05:00,
2013-09-27 10:10:00,56.9,53.7,30.23,SSW,205,0.0,0.0,89,0.00,,,0.00,Wunderground v.1.15,2013-09-27 14:10:00,
2013-09-27 10:15:00,58.1,54.2,30.23,SSW,205,0.0,1.0,87,0.00,,,0.00,Wunderground v.1.15,2013-09-27 14:15:00,
2013-09-27 10:21:00,59.7,55.5,30.23,SSW,200,0.0,0.0,86,0.00,,,0.00,Wunderground v.1.15,2013-09-27 14:21:00,
2013-09-27 10:27:00,60.9,55.4,30.23,SSW,204,0.0,0.0,82,0.00,,,0.00,Wunderground v.1.15,2013-09-27 14:27:00,
2013-09-27 10:32:00,61.7,55.8,30.22,SSW,204,0.0,0.0,81,0.00,,,0.00,Wunderground v.1.15,2013-09-27 14:32:00,
2013-09-27 10:37:00,63.2,56.9,30.23,SSW,203,0.0,0.0,80,0.00,,,0.00,Wunderground v.1.15,2013-09-27 14:37:00,
2013-09-27 10:42:00,63.7,56.0,30.22,SSW,209,0.0,2.0,76,0.00,,,0.00,Wunderground v.1.15,2013-09-27 14:42:00,
2013-09-27 10:47:00,63.2,55.5,30.22,SSE,163,1.0,3.0,76,0.00,,,0.00,Wunderground v.1.15,2013-09-27 14:47:00,
2013-09-27 10:52:00,63.4,54.6,30.22,SSE,163,1.0,1.0,73,0.00,,,0.00,Wunderground v.1.15,2013-09-27 14:52:00,
2013-09-27 10:57:00,63.4,55.7,30.22,SSW,205,0.0,1.0,76,0.00,,,0.00,Wunderground v.1.15,2013-09-27 14:57:00,
2013-09-27 11:03:00,63.4,54.6,30.22,NW,312,1.0,2.0,73,0.00,,,0.00,Wunderground v.1.15,2013-09-27 15:03:00,
2013-09-27 11:09:00,62.4,53.3,30.22,ENE,72,1.0,2.0,72,0.00,,,0.00,Wunderground v.1.15,2013-09-27 15:09:00,
2013-09-27 11:14:00,62.6,54.6,30.22,West,265,1.0,2.0,75,0.00,,,0.00,Wunderground v.1.15,2013-09-27 15:14:00,
2013-09-27 11:19:00,63.2,54.0,30.22,ENE,61,1.0,3.0,72,0.00,,,0.00,Wunderground v.1.15,2013-09-27 15:19:00,
2013-09-27 11:24:00,64.1,54.9,30.22,East,98,1.0,3.0,72,0.00,,,0.00,Wunderground v.1.15,2013-09-27 15:24:00,
2013-09-27 11:30:00,64.6,53.8,30.21,ESE,108,1.0,1.0,68,0.00,,,0.00,Wunderground v.1.15,2013-09-27 15:30:00,
2013-09-27 11:36:00,65.6,55.2,30.22,ENE,65,1.0,1.0,69,0.00,,,0.00,Wunderground v.1.15,2013-09-27 15:36:00,
2013-09-27 11:41:00,66.4,55.5,30.21,WNW,287,1.0,1.0,68,0.00,,,0.00,Wunderground v.1.15,2013-09-27 15:41:00,
2013-09-27 11:47:00,65.9,53.8,30.21,SSW,204,1.0,2.0,65,0.00,,,0.00,Wunderground v.1.15,2013-09-27 15:47:00,
2013-09-27 11:52:00,65.9,53.4,30.21,West,264,1.0,2.0,64,0.00,,,0.00,Wunderground v.1.15,2013-09-27 15:52:00,
2013-09-27 11:57:00,65.4,53.3,30.21,ENE,62,1.0,2.0,65,0.00,,,0.00,Wunderground v.1.15,2013-09-27 15:57:00,
2013-09-27 12:02:00,65.3,53.2,30.21,NE,37,1.0,2.0,65,0.00,,,0.00,Wunderground v.1.15,2013-09-27 16:02:00,
2013-09-27 12:08:00,65.5,53.8,30.21,ENE,68,1.0,2.0,66,0.00,,,0.00,Wunderground v.1.15,2013-09-27 16:08:00,
2013-09-27 12:13:00,65.9,53.8,30.21,ESE,118,1.0,3.0,65,0.00,,,0.00,Wunderground v.1.15,2013-09-27 16:13:00,
2013-09-27 12:18:00,66.4,54.3,30.21,East,93,1.0,3.0,65,0.00,,,0.00,Wunderground v.1.15,2013-09-27 16:18:00,
2013-09-27 12:23:00,66.5,53.1,30.21,East,86,1.0,3.0,62,0.00,,,0.00,Wunderground v.1.15,2013-09-27 16:23:00,
2013-09-27 12:28:00,66.4,53.8,30.21,ENE,71,2.0,3.0,64,0.00,,,0.00,Wunderground v.1.15,2013-09-27 16:28:00,
2013-09-27 12:33:00,66.9,53.5,30.21,NW,307,1.0,2.0,62,0.00,,,0.00,Wunderground v.1.15,2013-09-27 16:33:00,
2013-09-27 12:38:00,66.9,53.0,30.21,ESE,113,1.0,2.0,61,0.00,,,0.00,Wunderground v.1.15,2013-09-27 16:38:00,
2013-09-27 12:43:00,67.2,52.8,30.21,SE,146,1.0,1.0,60,0.00,,,0.00,Wunderground v.1.15,2013-09-27 16:43:00,
2013-09-27 12:48:00,67.0,52.7,30.21,ESE,114,1.0,3.0,60,0.00,,,0.00,Wunderground v.1.15,2013-09-27 16:48:00,
2013-09-27 12:53:00,67.2,52.8,30.20,SE,135,1.0,1.0,60,0.00,,,0.00,Wunderground v.1.15,2013-09-27 16:53:00,
2013-09-27 12:59:00,67.6,52.3,30.21,ENE,67,1.0,3.0,58,0.00,,,0.00,Wunderground v.1.15,2013-09-27 16:59:00,
2013-09-27 13:05:00,67.5,52.7,30.21,SE,136,1.0,1.0,59,0.00,,,0.00,Wunderground v.1.15,2013-09-27 17:05:00,
2013-09-27 13:10:00,67.8,52.9,30.20,SSE,148,0.0,0.0,59,0.00,,,0.00,Wunderground v.1.15,2013-09-27 17:10:00,
2013-09-27 13:15:00,68.1,53.7,30.20,NE,56,0.0,2.0,60,0.00,,,0.00,Wunderground v.1.15,2013-09-27 17:15:00,
2013-09-27 13:20:00,67.9,52.6,30.20,ESE,117,1.0,2.0,58,0.00,,,0.00,Wunderground v.1.15,2013-09-27 17:20:00,
2013-09-27 13:26:00,67.7,53.8,30.20,East,98,2.0,3.0,61,0.00,,,0.00,Wunderground v.1.15,2013-09-27 17:26:00,
2013-09-27 13:32:00,67.5,52.7,30.20,ESE,111,1.0,2.0,59,0.00,,,0.00,Wunderground v.1.15,2013-09-27 17:32:00,
2013-09-27 13:38:00,67.7,52.9,30.19,SE,127,1.0,3.0,59,0.00,,,0.00,Wunderground v.1.15,2013-09-27 17:38:00,
2013-09-27 13:44:00,67.9,53.5,30.20,ENE,57,1.0,4.0,60,0.00,,,0.00,Wunderground v.1.15,2013-09-27 17:44:00,
2013-09-27 13:49:00,67.9,52.1,30.19,ESE,115,1.0,4.0,57,0.00,,,0.00,Wunderground v.1.15,2013-09-27 17:49:00,
2013-09-27 13:55:00,68.3,52.9,30.19,South,174,1.0,4.0,58,0.00,,,0.00,Wunderground v.1.15,2013-09-27 17:55:00,
2013-09-27 14:00:00,68.7,52.8,30.19,ESE,120,1.0,1.0,57,0.00,,,0.00,Wunderground v.1.15,2013-09-27 18:00:00,
2013-09-27 14:05:00,69.0,54.1,30.18,NNW,331,1.0,1.0,59,0.00,,,0.00,Wunderground v.1.15,2013-09-27 18:05:00,
2013-09-27 14:10:00,69.1,53.7,30.18,NE,34,0.0,1.0,58,0.00,,,0.00,Wunderground v.1.15,2013-09-27 18:10:00,
2013-09-27 14:15:00,68.8,54.3,30.18,SSW,212,1.0,1.0,60,0.00,,,0.00,Wunderground v.1.15,2013-09-27 18:15:00,
2013-09-27 14:20:00,69.3,52.9,30.18,West,266,1.0,2.0,56,0.00,,,0.00,Wunderground v.1.15,2013-09-27 18:20:00,
2013-09-27 14:25:00,69.4,54.4,30.18,East,90,1.0,2.0,59,0.00,,,0.00,Wunderground v.1.15,2013-09-27 18:25:00,
2013-09-27 14:31:00,69.8,53.4,30.18,ENE,71,1.0,3.0,56,0.00,,,0.00,Wunderground v.1.15,2013-09-27 18:31:00,
2013-09-27 14:36:00,68.9,52.6,30.18,WNW,298,2.0,3.0,56,0.00,,,0.00,Wunderground v.1.15,2013-09-27 18:36:00,
2013-09-27 14:41:00,68.5,52.2,30.17,ESE,120,2.0,2.0,56,0.00,,,0.00,Wunderground v.1.15,2013-09-27 18:41:00,
2013-09-27 14:46:00,68.4,52.6,30.17,SE,127,1.0,3.0,57,0.00,,,0.00,Wunderground v.1.15,2013-09-27 18:46:00,
2013-09-27 14:51:00,68.7,53.3,30.17,WNW,300,1.0,2.0,58,0.00,,,0.00,Wunderground v.1.15,2013-09-27 18:51:00,
2013-09-27 14:57:00,69.2,53.3,30.17,SSE,161,1.0,2.0,57,0.00,,,0.00,Wunderground v.1.15,2013-09-27 18:57:00,
2013-09-27 15:02:00,69.4,54.0,30.17,ENE,60,1.0,1.0,58,0.00,,,0.00,Wunderground v.1.15,2013-09-27 19:02:00,
2013-09-27 15:07:00,69.9,53.0,30.17,ENE,68,1.0,1.0,55,0.00,,,0.00,Wunderground v.1.15,2013-09-27 19:07:00,
2013-09-27 15:13:00,69.9,54.0,30.17,SSW,204,1.0,1.0,57,0.00,,,0.00,Wunderground v.1.15,2013-09-27 19:13:00,
2013-09-27 15:18:00,70.2,52.8,30.17,ESE,116,1.0,2.0,54,0.00,,,0.00,Wunderground v.1.15,2013-09-27 19:18:00,
2013-09-27 15:23:00,70.2,52.3,30.17,SE,138,1.0,2.0,53,0.00,,,0.00,Wunderground v.1.15,2013-09-27 19:23:00,
2013-09-27 15:28:00,69.8,52.4,30.17,ESE,115,1.0,2.0,54,0.00,,,0.00,Wunderground v.1.15,2013-09-27 19:28:00,
2013-09-27 15:33:00,70.3,53.9,30.17,East,95,1.0,1.0,56,0.00,,,0.00,Wunderground v.1.15,2013-09-27 19:33:00,
2013-09-27 15:39:00,70.3,52.9,30.17,WNW,301,1.0,3.0,54,0.00,,,0.00,Wunderground v.1.15,2013-09-27 19:39:00,
2013-09-27 15:44:00,70.6,54.1,30.17,ENE,65,1.0,1.0,56,0.00,,,0.00,Wunderground v.1.15,2013-09-27 19:44:00,
2013-09-27 15:49:00,71.0,54.0,30.17,WSW,241,1.0,2.0,55,0.00,,,0.00,Wunderground v.1.15,2013-09-27 19:49:00,
2013-09-27 15:54:00,71.2,52.7,30.17,NNE,19,1.0,2.0,52,0.00,,,0.00,Wunderground v.1.15,2013-09-27 19:54:00,
2013-09-27 15:59:00,70.6,57.4,30.16,West,276,1.0,5.0,63,0.00,,,0.00,Wunderground v.1.15,2013-09-27 19:59:00,
2013-09-27 16:04:00,69.9,55.4,30.16,NNW,330,2.0,2.0,60,0.00,,,0.00,Wunderground v.1.15,2013-09-27 20:04:00,
2013-09-27 16:10:00,69.6,57.3,30.16,West,270,2.0,2.0,65,0.00,,,0.00,Wunderground v.1.15,2013-09-27 20:10:00,
2013-09-27 16:15:00,69.4,58.0,30.16,NW,315,1.0,2.0,67,0.00,,,0.00,Wunderground v.1.15,2013-09-27 20:15:00,
2013-09-27 16:20:00,69.2,57.8,30.16,WNW,294,1.0,2.0,67,0.00,,,0.00,Wunderground v.1.15,2013-09-27 20:20:00,
2013-09-27 16:25:00,68.7,57.3,30.16,NW,305,2.0,6.0,67,0.00,,,0.00,Wunderground v.1.15,2013-09-27 20:25:00,
2013-09-27 16:31:00,68.3,57.7,30.16,WNW,291,2.0,4.0,69,0.00,,,0.00,Wunderground v.1.15,2013-09-27 20:31:00,
2013-09-27 16:36:00,68.0,57.4,30.16,NNW,335,2.0,4.0,69,0.00,,,0.00,Wunderground v.1.15,2013-09-27 20:36:00,
2013-09-27 16:41:00,67.5,57.4,30.16,NW,319,3.0,3.0,70,0.00,,,0.00,Wunderground v.1.15,2013-09-27 20:41:00,
2013-09-27 16:47:00,67.2,57.1,30.17,WNW,294,3.0,4.0,70,0.00,,,0.00,Wunderground v.1.15,2013-09-27 20:47:00,
2013-09-27 16:52:00,67.1,57.4,30.17,NNW,333,2.0,2.0,71,0.00,,,0.00,Wunderground v.1.15,2013-09-27 20:52:00,
2013-09-27 16:57:00,66.9,57.6,30.16,SSW,200,2.0,3.0,72,0.00,,,0.00,Wunderground v.1.15,2013-09-27 20:57:00,
2013-09-27 17:03:00,66.7,57.0,30.17,WNW,291,3.0,4.0,71,0.00,,,0.00,Wunderground v.1.15,2013-09-27 21:03:00,
2013-09-27 17:08:00,66.5,56.8,30.16,West,259,3.0,4.0,71,0.00,,,0.00,Wunderground v.1.15,2013-09-27 21:08:00,
2013-09-27 17:13:00,66.5,56.8,30.16,West,271,2.0,3.0,71,0.00,,,0.00,Wunderground v.1.15,2013-09-27 21:13:00,
2013-09-27 17:19:00,66.3,57.0,30.16,WNW,300,2.0,3.0,72,0.00,,,0.00,Wunderground v.1.15,2013-09-27 21:19:00,
2013-09-27 17:24:00,66.2,56.9,30.16,NE,34,2.0,4.0,72,0.00,,,0.00,Wunderground v.1.15,2013-09-27 21:24:00,
2013-09-27 17:29:00,66.3,57.4,30.16,North,6,2.0,4.0,73,0.00,,,0.00,Wunderground v.1.15,2013-09-27 21:29:00,
2013-09-27 17:34:00,66.4,57.5,30.16,WNW,295,1.0,2.0,73,0.00,,,0.00,Wunderground v.1.15,2013-09-27 21:34:00,
2013-09-27 17:39:00,66.3,57.0,30.16,WNW,282,1.0,3.0,72,0.00,,,0.00,Wunderground v.1.15,2013-09-27 21:39:00,
2013-09-27 17:45:00,66.0,57.1,30.16,North,9,2.0,2.0,73,0.00,,,0.00,Wunderground v.1.15,2013-09-27 21:45:00,
2013-09-27 17:50:00,65.7,57.2,30.16,WNW,284,2.0,2.0,74,0.00,,,0.00,Wunderground v.1.15,2013-09-27 21:50:00,
2013-09-27 17:55:00,65.5,57.0,30.16,West,277,2.0,2.0,74,0.00,,,0.00,Wunderground v.1.15,2013-09-27 21:55:00,
2013-09-27 18:01:00,65.4,56.9,30.17,North,356,1.0,3.0,74,0.00,,,0.00,Wunderground v.1.15,2013-09-27 22:01:00,
2013-09-27 18:06:00,65.3,56.8,30.16,WNW,298,1.0,4.0,74,0.00,,,0.00,Wunderground v.1.15,2013-09-27 22:06:00,
2013-09-27 18:11:00,65.1,57.0,30.16,NW,317,1.0,1.0,75,0.00,,,0.00,Wunderground v.1.15,2013-09-27 22:11:00,
2013-09-27 18:16:00,64.9,56.8,30.16,NNW,327,0.0,1.0,75,0.00,,,0.00,Wunderground v.1.15,2013-09-27 22:16:00,
2013-09-27 18:21:00,64.7,57.0,30.16,WNW,283,1.0,1.0,76,0.00,,,0.00,Wunderground v.1.15,2013-09-27 22:21:00,
2013-09-27 18:27:00,64.4,56.7,30.16,WSW,257,0.0,1.0,76,0.00,,,0.00,Wunderground v.1.15,2013-09-27 22:27:00,
2013-09-27 18:32:00,64.1,56.7,30.17,West,276,0.0,0.0,77,0.00,,,0.00,Wunderground v.1.15,2013-09-27 22:32:00,
2013-09-27 18:37:00,63.8,56.8,30.17,WNW,300,0.0,1.0,78,0.00,,,0.00,Wunderground v.1.15,2013-09-27 22:37:00,
2013-09-27 18:43:00,63.5,56.5,30.17,West,276,1.0,1.0,78,0.00,,,0.00,Wunderground v.1.15,2013-09-27 22:43:00,
2013-09-27 18:48:00,63.3,56.7,30.17,WNW,297,1.0,1.0,79,0.00,,,0.00,Wunderground v.1.15,2013-09-27 22:48:00,
2013-09-27 18:53:00,63.0,56.4,30.17,WSW,257,1.0,1.0,79,0.00,,,0.00,Wunderground v.1.15,2013-09-27 22:53:00,
2013-09-27 18:58:00,62.6,56.3,30.17,WSW,257,0.0,1.0,80,0.00,,,0.00,Wunderground v.1.15,2013-09-27 22:58:00,
2013-09-27 19:04:00,62.1,56.2,30.18,West,270,0.0,0.0,81,0.00,,,0.00,Wunderground v.1.15,2013-09-27 23:04:00,
2013-09-27 19:09:00,61.7,56.1,30.18,WSW,245,0.0,0.0,82,0.00,,,0.00,Wunderground v.1.15,2013-09-27 23:09:00,
2013-09-27 19:15:00,61.3,56.1,30.18,WSW,246,0.0,0.0,83,0.00,,,0.00,Wunderground v.1.15,2013-09-27 23:15:00,
2013-09-27 19:20:00,60.9,56.0,30.18,WSW,246,0.0,0.0,84,0.00,,,0.00,Wunderground v.1.15,2013-09-27 23:20:00,
2013-09-27 19:25:00,60.4,55.9,30.18,WSW,246,0.0,0.0,85,0.00,,,0.00,Wunderground v.1.15,2013-09-27 23:25:00,
2013-09-27 19:30:00,59.9,55.7,30.18,WSW,246,0.0,0.0,86,0.00,,,0.00,Wunderground v.1.15,2013-09-27 23:30:00,
2013-09-27 19:36:00,59.2,55.3,30.18,WSW,246,0.0,0.0,87,0.00,,,0.00,Wunderground v.1.15,2013-09-27 23:36:00,
2013-09-27 19:42:00,58.7,55.2,30.18,WSW,245,0.0,0.0,88,0.00,,,0.00,Wunderground v.1.15,2013-09-27 23:42:00,
2013-09-27 19:47:00,58.3,55.1,30.18,WSW,245,0.0,0.0,89,0.00,,,0.00,Wunderground v.1.15,2013-09-27 23:47:00,
2013-09-27 19:52:00,57.9,55.0,30.18,WSW,245,0.0,0.0,90,0.00,,,0.00,Wunderground v.1.15,2013-09-27 23:52:00,
2013-09-27 19:58:00,57.4,54.5,30.18,WSW,245,0.0,0.0,90,0.00,,,0.00,Wunderground v.1.15,2013-09-27 23:58:00,
2013-09-27 20:03:00,57.2,54.6,30.18,WSW,245,0.0,0.0,91,0.00,,,0.00,Wunderground v.1.15,2013-09-28 00:03:00,
2013-09-27 20:09:00,57.0,54.4,30.18,WSW,245,0.0,0.0,91,0.00,,,0.00,Wunderground v.1.15,2013-09-28 00:09:00,
2013-09-27 20:14:00,56.7,54.1,30.19,WSW,245,0.0,0.0,91,0.00,,,0.00,Wunderground v.1.15,2013-09-28 00:14:00,
2013-09-27 20:19:00,56.5,54.2,30.19,WSW,245,0.0,0.0,92,0.00,,,0.00,Wunderground v.1.15,2013-09-28 00:19:00,
2013-09-27 20:24:00,56.4,54.1,30.19,WSW,245,0.0,0.0,92,0.00,,,0.00,Wunderground v.1.15,2013-09-28 00:24:00,
2013-09-27 20:30:00,56.2,53.9,30.19,WSW,245,0.0,0.0,92,0.00,,,0.00,Wunderground v.1.15,2013-09-28 00:30:00,
2013-09-27 20:35:00,55.9,53.6,30.19,WSW,245,0.0,0.0,92,0.00,,,0.00,Wunderground v.1.15,2013-09-28 00:35:00,
2013-09-27 20:40:00,55.5,53.5,30.19,WSW,245,0.0,0.0,93,0.00,,,0.00,Wunderground v.1.15,2013-09-28 00:40:00,
2013-09-27 20:46:00,55.4,53.4,30.19,WSW,245,0.0,0.0,93,0.00,,,0.00,Wunderground v.1.15,2013-09-28 00:46:00,
2013-09-27 20:51:00,55.2,53.2,30.19,WSW,245,0.0,0.0,93,0.00,,,0.00,Wunderground v.1.15,2013-09-28 00:51:00,
2013-09-27 20:57:00,55.0,53.0,30.19,WSW,245,0.0,0.0,93,0.00,,,0.00,Wunderground v.1.15,2013-09-28 00:57:00,
2013-09-27 21:02:00,54.7,53.0,30.19,WSW,245,0.0,0.0,94,0.00,,,0.00,Wunderground v.1.15,2013-09-28 01:02:00,
2013-09-27 21:08:00,54.5,52.8,30.20,WSW,245,0.0,0.0,94,0.00,,,0.00,Wunderground v.1.15,2013-09-28 01:08:00,
2013-09-27 21:13:00,54.3,52.6,30.20,WSW,245,0.0,0.0,94,0.00,,,0.00,Wunderground v.1.15,2013-09-28 01:13:00,
2013-09-27 21:18:00,54.1,52.4,30.20,WSW,245,0.0,0.0,94,0.00,,,0.00,Wunderground v.1.15,2013-09-28 01:18:00,
2013-09-27 21:23:00,53.9,52.2,30.20,WSW,245,0.0,0.0,94,0.00,,,0.00,Wunderground v.1.15,2013-09-28 01:23:00,
2013-09-27 21:29:00,53.7,52.3,30.20,WSW,245,0.0,0.0,95,0.00,,,0.00,Wunderground v.1.15,2013-09-28 01:29:00,
2013-09-27 21:34:00,53.6,52.2,30.20,WSW,245,0.0,0.0,95,0.00,,,0.00,Wunderground v.1.15,2013-09-28 01:34:00,
2013-09-27 21:39:00,53.5,52.1,30.20,WSW,245,0.0,0.0,95,0.00,,,0.00,Wunderground v.1.15,2013-09-28 01:39:00,
2013-09-27 21:45:00,53.3,51.9,30.20,WSW,245,0.0,0.0,95,0.00,,,0.00,Wunderground v.1.15,2013-09-28 01:45:00,
2013-09-27 21:50:00,53.2,51.8,30.20,WSW,245,0.0,0.0,95,0.00,,,0.00,Wunderground v.1.15,2013-09-28 01:50:00,
2013-09-27 21:56:00,53.0,51.6,30.20,WSW,244,0.0,0.0,95,0.00,,,0.00,Wunderground v.1.15,2013-09-28 01:56:00,
2013-09-27 22:02:00,52.8,51.4,30.21,WSW,245,0.0,0.0,95,0.00,,,0.00,Wunderground v.1.15,2013-09-28 02:02:00,
2013-09-27 22:07:00,52.6,51.2,30.20,WSW,245,0.0,0.0,95,0.00,,,0.00,Wunderground v.1.15,2013-09-28 02:07:00,
2013-09-27 22:12:00,52.5,51.1,30.20,WSW,245,0.0,0.0,95,0.00,,,0.00,Wunderground v.1.15,2013-09-28 02:12:00,
2013-09-27 22:18:00,52.3,50.9,30.21,WSW,245,0.0,0.0,95,0.00,,,0.00,Wunderground v.1.15,2013-09-28 02:18:00,
2013-09-27 22:23:00,52.2,51.1,30.21,WSW,245,0.0,0.0,96,0.00,,,0.00,Wunderground v.1.15,2013-09-28 02:23:00,
2013-09-27 22:28:00,52.1,51.0,30.21,WSW,245,0.0,0.0,96,0.00,,,0.00,Wunderground v.1.15,2013-09-28 02:28:00,
2013-09-27 22:34:00,51.9,50.8,30.21,WSW,244,0.0,0.0,96,0.00,,,0.00,Wunderground v.1.15,2013-09-28 02:34:00,
2013-09-27 22:39:00,51.7,50.6,30.21,WSW,244,0.0,0.0,96,0.00,,,0.00,Wunderground v.1.15,2013-09-28 02:39:00,
2013-09-27 22:45:00,51.5,50.4,30.21,WSW,245,0.0,0.0,96,0.00,,,0.00,Wunderground v.1.15,2013-09-28 02:45:00,
2013-09-27 22:50:00,51.3,50.2,30.21,WSW,245,0.0,0.0,96,0.00,,,0.00,Wunderground v.1.15,2013-09-28 02:50:00,
2013-09-27 22:55:00,51.0,49.9,30.21,WSW,245,0.0,0.0,96,0.00,,,0.00,Wunderground v.1.15,2013-09-28 02:55:00,
2013-09-27 23:01:00,50.8,49.7,30.21,WSW,245,0.0,0.0,96,0.00,,,0.00,Wunderground v.1.15,2013-09-28 03:01:00,
2013-09-27 23:06:00,50.7,49.6,30.22,WSW,245,0.0,0.0,96,0.00,,,0.00,Wunderground v.1.15,2013-09-28 03:06:00,
2013-09-27 23:11:00,50.5,49.4,30.21,WSW,245,0.0,0.0,96,0.00,,,0.00,Wunderground v.1.15,2013-09-28 03:11:00,
2013-09-27 23:16:00,50.3,49.2,30.21,WSW,245,0.0,0.0,96,0.00,,,0.00,Wunderground v.1.15,2013-09-28 03:16:00,
2013-09-27 23:22:00,50.1,49.0,30.21,WSW,245,0.0,0.0,96,0.00,,,0.00,Wunderground v.1.15,2013-09-28 03:22:00,
2013-09-27 23:27:00,49.9,48.8,30.21,WSW,245,0.0,0.0,96,0.00,,,0.00,Wunderground v.1.15,2013-09-28 03:27:00,
2013-09-27 23:32:00,49.8,48.7,30.21,WSW,245,0.0,0.0,96,0.00,,,0.00,Wunderground v.1.15,2013-09-28 03:32:00,
2013-09-27 23:38:00,49.7,48.6,30.21,WSW,245,0.0,0.0,96,0.00,,,0.00,Wunderground v.1.15,2013-09-28 03:38:00,
2013-09-27 23:43:00,49.5,48.4,30.21,WSW,245,0.0,0.0,96,0.00,,,0.00,Wunderground v.1.15,2013-09-28 03:43:00,
2013-09-27 23:49:00,49.4,48.3,30.21,WSW,245,0.0,0.0,96,0.00,,,0.00,Wunderground v.1.15,2013-09-28 03:49:00,
2013-09-27 23:55:00,49.3,48.2,30.21,WSW,244,0.0,0.0,96,0.00,,,0.00,Wunderground v.1.15,2013-09-28 03:55:00,